createdAt,value
2023-03-17T00:00:12.469Z,1.00
2023-03-17T00:01:29.759Z,1.00
2023-03-17T00:02:08.364Z,1.00
2023-03-17T00:02:54.687Z,1.00
2023-03-17T00:03:38.859Z,1.00
2023-03-17T00:04:19.985Z,1.00
2023-03-17T00:04:59.726Z,1.00
2023-03-17T00:05:41.421Z,1.00
2023-03-17T00:06:30.325Z,1.00
2023-03-17T00:07:17.003Z,1.00
2023-03-17T00:08:40.188Z,1.00
2023-03-17T00:09:22.978Z,1.00
2023-03-17T00:10:02.044Z,1.00
2023-03-17T00:10:46.797Z,1.00
2023-03-17T00:11:34.821Z,1.00
2023-03-17T00:12:18.537Z,1.00
2023-03-17T00:12:57.755Z,1.00
2023-03-17T00:13:38.750Z,1.00
2023-03-17T00:14:20.045Z,1.00
2023-03-17T00:15:54.253Z,1.00
2023-03-17T00:18:17.653Z,1.00
2023-03-17T00:18:58.208Z,1.00
2023-03-17T00:20:15.988Z,1.00
2023-03-17T00:20:56.422Z,1.00
2023-03-17T00:21:42.264Z,1.00
2023-03-17T00:22:30.127Z,1.00
2023-03-17T00:23:12.556Z,1.00
2023-03-17T00:23:52.183Z,1.00
2023-03-17T00:24:31.709Z,1.00
2023-03-17T00:25:25.551Z,1.00
2023-03-17T00:26:05.060Z,1.00
2023-03-17T00:26:44.723Z,1.00
2023-03-17T00:27:26.684Z,1.00
2023-03-17T00:28:29.085Z,1.00
2023-03-17T00:30:55.858Z,1.00
2023-03-17T00:31:39.601Z,1.00
2023-03-17T00:32:21.938Z,1.00
2023-03-17T00:33:05.029Z,1.00
2023-03-17T00:33:50.382Z,1.00
2023-03-17T00:34:30.290Z,1.00
2023-03-17T00:35:34.503Z,1.00
2023-03-17T00:36:56.034Z,1.00
2023-03-17T00:37:39.981Z,1.00
2023-03-17T00:38:26.910Z,1.00
2023-03-17T00:40:32.100Z,1.00
2023-03-17T00:42:13.474Z,1.00
2023-03-17T00:42:53.644Z,1.00
2023-03-17T00:43:57.770Z,1.00
2023-03-17T00:44:36.706Z,1.00
2023-03-17T00:45:56.318Z,1.00
2023-03-17T00:46:38.437Z,1.00
2023-03-17T00:47:56.831Z,1.00
2023-03-17T00:48:39.031Z,1.00
2023-03-17T00:49:27.968Z,1.00
2023-03-17T00:50:15.967Z,1.00
2023-03-17T00:50:56.230Z,1.00
2023-03-17T00:51:37.657Z,1.00
2023-03-17T00:52:16.739Z,1.00
2023-03-17T00:53:01.531Z,1.00
2023-03-17T00:53:44.693Z,1.00
2023-03-17T00:54:24.568Z,1.00
2023-03-17T00:55:38.816Z,1.00
2023-03-17T00:56:21.700Z,1.00
2023-03-17T00:57:00.810Z,1.00
2023-03-17T00:57:40.983Z,1.00
2023-03-17T00:59:42.929Z,1.00
2023-03-17T01:00:30.205Z,1.00
2023-03-17T01:01:20.481Z,1.00
2023-03-17T01:01:59.930Z,1.00
2023-03-17T01:02:39.906Z,1.00
2023-03-17T01:04:31.300Z,1.00
2023-03-17T01:05:35.413Z,1.00
2023-03-17T01:07:23.305Z,1.00
2023-03-17T01:08:12.920Z,1.00
2023-03-17T01:09:02.350Z,1.00
2023-03-17T01:09:44.026Z,1.00
2023-03-17T01:10:29.208Z,1.00
2023-03-17T01:12:06.456Z,1.00
2023-03-17T01:14:22.718Z,1.00
2023-03-17T01:21:28.476Z,1.00
2023-03-17T01:22:09.036Z,1.67
2023-03-17T01:22:49.115Z,6.33
2023-03-17T01:23:42.029Z,20.00
2023-03-17T01:24:26.778Z,40.67
2023-03-17T01:25:06.561Z,50.67
2023-03-17T01:25:47.388Z,58.67
2023-03-17T01:26:26.666Z,67.00
2023-03-17T01:27:05.767Z,73.67
2023-03-17T01:27:47.113Z,77.33
2023-03-17T01:29:06.476Z,79.67
2023-03-17T01:30:36.625Z,75.00
2023-03-17T01:31:26.572Z,68.67
2023-03-17T01:32:33.718Z,63.00
2023-03-17T01:33:16.093Z,58.00
2023-03-17T01:33:57.009Z,56.00
2023-03-17T01:35:58.244Z,32.00
2023-03-17T01:37:01.953Z,25.67
2023-03-17T01:38:39.837Z,17.33
2023-03-17T01:39:19.877Z,15.67
2023-03-17T01:40:51.989Z,13.00
2023-03-17T01:41:35.716Z,12.00
2023-03-17T01:42:14.789Z,11.00
2023-03-17T01:43:16.285Z,10.33
2023-03-17T01:43:54.726Z,9.00
2023-03-17T01:44:34.074Z,7.67
2023-03-17T01:45:39.824Z,7.00
2023-03-17T01:46:37.732Z,5.67
2023-03-17T01:47:59.350Z,4.67
2023-03-17T01:49:03.116Z,4.00
2023-03-17T01:49:53.985Z,4.00
2023-03-17T01:51:24.500Z,3.00
2023-03-17T01:52:14.337Z,3.00
2023-03-17T01:52:55.110Z,3.00
2023-03-17T01:53:36.491Z,3.00
2023-03-17T01:54:59.640Z,3.00
2023-03-17T01:57:07.678Z,2.00
2023-03-17T01:58:26.578Z,2.00
2023-03-17T01:59:10.376Z,2.00
2023-03-17T02:00:40.848Z,2.00
2023-03-17T02:01:47.476Z,1.00
2023-03-17T02:03:48.677Z,1.00
2023-03-17T02:04:27.739Z,1.00
2023-03-17T02:05:10.348Z,1.00
2023-03-17T02:05:52.774Z,1.00
2023-03-17T02:07:46.220Z,1.00
2023-03-17T02:08:27.477Z,1.00
2023-03-17T02:09:06.769Z,1.00
2023-03-17T02:09:47.616Z,1.00
2023-03-17T02:10:30.694Z,1.00
2023-03-17T02:11:47.529Z,1.00
2023-03-17T02:13:33.011Z,1.00
2023-03-17T02:14:12.439Z,1.00
2023-03-17T02:14:55.318Z,1.00
2023-03-17T02:15:35.695Z,1.00
2023-03-17T02:16:16.191Z,1.00
2023-03-17T02:16:55.186Z,1.00
2023-03-17T02:19:11.505Z,1.00
2023-03-17T02:19:51.951Z,1.00
2023-03-17T02:20:30.791Z,1.00
2023-03-17T02:21:35.506Z,1.00
2023-03-17T02:22:57.433Z,1.00
2023-03-17T02:23:40.529Z,1.00
2023-03-17T02:24:36.332Z,1.00
2023-03-17T02:25:17.698Z,1.00
2023-03-17T02:25:57.092Z,1.00
2023-03-17T02:26:38.854Z,1.00
2023-03-17T02:28:23.386Z,1.00
2023-03-17T02:29:46.443Z,1.00
2023-03-17T02:30:25.764Z,1.00
2023-03-17T02:31:05.636Z,1.00
2023-03-17T02:31:45.835Z,1.00
2023-03-17T02:32:26.615Z,1.00
2023-03-17T02:35:05.707Z,1.00
2023-03-17T02:35:48.307Z,1.00
2023-03-17T02:36:28.666Z,1.00
2023-03-17T02:37:11.404Z,1.00
2023-03-17T02:37:59.001Z,1.00
2023-03-17T02:38:41.291Z,1.00
2023-03-17T02:39:20.067Z,1.00
2023-03-17T02:40:01.854Z,1.00
2023-03-17T02:40:40.143Z,1.00
2023-03-17T02:42:00.698Z,1.00
2023-03-17T02:42:45.145Z,1.00
2023-03-17T02:47:08.750Z,1.00
2023-03-17T02:47:47.693Z,1.00
2023-03-17T02:48:28.955Z,1.00
2023-03-17T02:49:49.748Z,1.00
2023-03-17T02:51:09.401Z,1.00
2023-03-17T02:51:49.004Z,1.00
2023-03-17T02:52:28.433Z,1.00
2023-03-17T02:53:08.336Z,1.00
2023-03-17T02:53:58.298Z,1.00
2023-03-17T02:55:01.398Z,1.00
2023-03-17T02:56:17.258Z,1.00
2023-03-17T02:58:03.184Z,1.00
2023-03-17T02:58:41.673Z,1.00
2023-03-17T02:59:26.120Z,1.00
2023-03-17T03:00:43.179Z,1.00
2023-03-17T03:01:23.150Z,1.00
2023-03-17T03:02:02.328Z,1.00
2023-03-17T03:02:42.758Z,1.00
2023-03-17T03:03:21.436Z,1.00
2023-03-17T03:04:02.640Z,1.00
2023-03-17T03:04:43.889Z,1.00
2023-03-17T03:05:26.810Z,1.00
2023-03-17T03:06:46.073Z,1.00
2023-03-17T03:08:05.569Z,1.00
2023-03-17T03:09:39.244Z,1.00
2023-03-17T03:10:21.469Z,1.00
2023-03-17T03:11:02.745Z,1.00
2023-03-17T03:11:42.849Z,1.00
2023-03-17T03:13:01.799Z,1.00
2023-03-17T03:13:42.585Z,1.00
2023-03-17T03:14:24.287Z,1.00
2023-03-17T03:15:03.842Z,1.00
2023-03-17T03:16:07.878Z,1.00
2023-03-17T03:17:25.161Z,1.00
2023-03-17T03:18:04.134Z,1.00
2023-03-17T03:18:43.116Z,1.00
2023-03-17T03:19:29.994Z,1.00
2023-03-17T03:20:12.431Z,1.00
2023-03-17T03:22:51.968Z,1.00
2023-03-17T03:24:11.107Z,1.00
2023-03-17T03:25:15.082Z,1.00
2023-03-17T03:25:54.726Z,1.00
2023-03-17T03:26:58.821Z,1.00
2023-03-17T03:30:21.555Z,1.00
2023-03-17T03:31:00.731Z,1.00
2023-03-17T03:32:04.807Z,1.00
2023-03-17T03:33:25.167Z,1.00
2023-03-17T03:34:47.140Z,1.00
2023-03-17T03:36:06.736Z,1.00
2023-03-17T03:36:47.131Z,1.00
2023-03-17T03:37:50.350Z,1.00
2023-03-17T03:39:09.795Z,1.00
2023-03-17T03:40:30.497Z,1.00
2023-03-17T03:41:49.754Z,1.00
2023-03-17T03:42:30.449Z,1.00
2023-03-17T03:43:21.979Z,1.00
2023-03-17T03:44:10.109Z,1.00
2023-03-17T03:45:27.070Z,1.00
2023-03-17T03:46:09.278Z,1.00
2023-03-17T03:46:49.239Z,1.00
2023-03-17T03:47:52.478Z,1.00
2023-03-17T03:49:18.198Z,1.00
2023-03-17T03:51:58.093Z,1.00
2023-03-17T03:52:37.877Z,1.00
2023-03-17T03:53:20.306Z,1.00
2023-03-17T03:54:01.418Z,1.00
2023-03-17T03:54:45.345Z,1.00
2023-03-17T03:55:27.158Z,1.00
2023-03-17T03:56:06.569Z,1.00
2023-03-17T03:56:46.208Z,1.00
2023-03-17T03:58:15.715Z,1.00
2023-03-17T03:58:57.277Z,1.00
2023-03-17T03:59:39.818Z,1.00
2023-03-17T04:00:22.164Z,1.00
2023-03-17T04:00:59.828Z,1.00
2023-03-17T04:01:48.867Z,1.00
2023-03-17T04:02:32.150Z,1.00
2023-03-17T04:03:14.694Z,1.00
2023-03-17T04:03:53.818Z,1.00
2023-03-17T04:04:34.703Z,1.00
2023-03-17T04:05:57.044Z,1.00
2023-03-17T04:07:15.792Z,1.00
2023-03-17T04:10:17.328Z,1.00
2023-03-17T04:10:56.034Z,1.00
2023-03-17T04:11:59.927Z,1.00
2023-03-17T04:12:39.850Z,1.00
2023-03-17T04:13:20.150Z,1.00
2023-03-17T04:13:58.846Z,1.00
2023-03-17T04:14:39.055Z,1.00
2023-03-17T04:15:42.772Z,1.00
2023-03-17T04:17:07.018Z,1.00
2023-03-17T04:17:49.243Z,1.00
2023-03-17T04:18:31.775Z,1.00
2023-03-17T04:19:12.254Z,1.00
2023-03-17T04:19:52.436Z,1.00
2023-03-17T04:20:32.545Z,1.00
2023-03-17T04:21:13.691Z,1.00
2023-03-17T04:22:02.989Z,1.00
2023-03-17T04:22:42.612Z,1.00
2023-03-17T04:23:47.399Z,1.00
2023-03-17T04:25:04.392Z,1.00
2023-03-17T04:25:43.252Z,1.00
2023-03-17T04:26:25.129Z,1.00
2023-03-17T04:27:08.058Z,1.00
2023-03-17T04:27:50.087Z,1.00
2023-03-17T04:28:32.414Z,1.00
2023-03-17T04:29:15.817Z,1.00
2023-03-17T04:30:35.086Z,1.00
2023-03-17T04:31:15.758Z,1.00
2023-03-17T04:31:54.356Z,1.00
2023-03-17T04:32:36.226Z,1.00
2023-03-17T04:33:15.138Z,1.00
2023-03-17T04:33:57.189Z,1.00
2023-03-17T04:34:36.075Z,1.00
2023-03-17T04:35:22.546Z,1.00
2023-03-17T04:36:04.218Z,1.00
2023-03-17T04:37:41.893Z,1.00
2023-03-17T04:38:21.769Z,1.00
2023-03-17T04:39:25.455Z,1.00
2023-03-17T04:40:42.286Z,1.00
2023-03-17T04:41:21.461Z,1.00
2023-03-17T04:42:14.195Z,1.00
2023-03-17T04:42:54.063Z,1.00
2023-03-17T04:43:34.088Z,1.00
2023-03-17T04:44:37.796Z,1.00
2023-03-17T04:45:41.840Z,1.00
2023-03-17T04:46:59.122Z,1.00
2023-03-17T04:47:39.586Z,1.00
2023-03-17T04:49:22.059Z,1.00
2023-03-17T04:50:49.026Z,1.00
2023-03-17T04:51:31.315Z,1.00
2023-03-17T04:52:14.437Z,1.00
2023-03-17T04:53:44.953Z,1.00
2023-03-17T04:54:25.349Z,1.00
2023-03-17T04:55:45.922Z,1.00
2023-03-17T04:56:24.121Z,1.00
2023-03-17T04:57:11.008Z,1.00
2023-03-17T04:57:58.045Z,1.00
2023-03-17T04:58:39.838Z,1.00
2023-03-17T04:59:44.040Z,1.00
2023-03-17T05:03:20.052Z,1.00
2023-03-17T05:04:56.174Z,1.00
2023-03-17T05:05:36.759Z,1.00
2023-03-17T05:06:18.456Z,1.00
2023-03-17T05:08:01.986Z,1.00
2023-03-17T05:08:45.140Z,1.00
2023-03-17T05:09:25.351Z,1.00
2023-03-17T05:10:29.893Z,1.00
2023-03-17T05:11:55.963Z,1.00
2023-03-17T05:12:36.321Z,1.00
2023-03-17T05:13:16.046Z,1.00
2023-03-17T05:13:58.735Z,1.00
2023-03-17T05:15:51.635Z,1.00
2023-03-17T05:17:13.963Z,1.00
2023-03-17T05:18:31.347Z,1.00
2023-03-17T05:19:13.226Z,1.00
2023-03-17T05:20:02.141Z,1.00
2023-03-17T05:20:41.536Z,1.00
2023-03-17T05:21:21.171Z,1.00
2023-03-17T05:22:13.164Z,1.00
2023-03-17T05:22:55.120Z,1.00
2023-03-17T05:23:35.557Z,1.00
2023-03-17T05:24:15.414Z,1.00
2023-03-17T05:27:31.472Z,1.00
2023-03-17T05:28:10.564Z,2.33
2023-03-17T05:29:28.734Z,9.67
2023-03-17T05:30:31.966Z,51.00
2023-03-17T05:31:11.872Z,73.67
2023-03-17T05:31:52.330Z,82.67
2023-03-17T05:32:44.251Z,89.67
2023-03-17T05:33:49.286Z,95.67
2023-03-17T05:35:08.771Z,105.67
2023-03-17T05:36:12.339Z,103.33
2023-03-17T05:36:51.947Z,94.33
2023-03-17T05:37:33.381Z,87.67
2023-03-17T05:38:12.005Z,81.00
2023-03-17T05:39:05.409Z,76.00
2023-03-17T05:40:09.850Z,72.67
2023-03-17T05:40:51.477Z,68.67
2023-03-17T05:42:33.859Z,50.67
2023-03-17T05:43:16.190Z,38.00
2023-03-17T05:43:56.899Z,32.33
2023-03-17T05:44:37.442Z,29.33
2023-03-17T05:45:57.409Z,25.67
2023-03-17T05:46:37.438Z,23.67
2023-03-17T05:47:59.954Z,19.00
2023-03-17T05:48:32.565Z,16.67
2023-03-17T05:49:20.846Z,15.33
2023-03-17T05:50:24.882Z,12.67
2023-03-17T05:52:07.747Z,8.33
2023-03-17T05:52:47.884Z,6.00
2023-03-17T05:53:31.827Z,5.00
2023-03-17T05:55:31.387Z,3.00
2023-03-17T05:56:51.816Z,3.00
2023-03-17T05:57:45.615Z,3.00
2023-03-17T06:00:57.151Z,2.00
2023-03-17T06:01:37.622Z,2.00
2023-03-17T06:02:21.008Z,3.00
2023-03-17T06:03:24.513Z,2.33
2023-03-17T06:04:53.841Z,2.00
2023-03-17T06:05:35.823Z,2.00
2023-03-17T06:06:54.632Z,2.00
2023-03-17T06:08:14.994Z,2.00
2023-03-17T06:08:58.480Z,2.00
2023-03-17T06:10:36.361Z,2.00
2023-03-17T06:11:16.336Z,2.00
2023-03-17T06:11:57.975Z,2.00
2023-03-17T06:12:47.399Z,2.00
2023-03-17T06:13:27.256Z,2.00
2023-03-17T06:14:06.412Z,2.00
2023-03-17T06:14:46.196Z,2.00
2023-03-17T06:15:52.336Z,2.00
2023-03-17T06:17:14.602Z,2.00
2023-03-17T06:18:31.472Z,2.00
2023-03-17T06:19:11.706Z,2.00
2023-03-17T06:19:51.470Z,2.00
2023-03-17T06:20:32.816Z,2.00
2023-03-17T06:21:14.119Z,2.00
2023-03-17T06:21:53.235Z,1.33
2023-03-17T06:22:35.436Z,1.00
2023-03-17T06:23:16.054Z,1.00
2023-03-17T06:23:56.256Z,1.00
2023-03-17T06:24:44.128Z,1.00
2023-03-17T06:25:22.872Z,1.00
2023-03-17T06:26:07.235Z,1.00
2023-03-17T06:27:25.716Z,1.00
2023-03-17T06:28:44.461Z,1.00
2023-03-17T06:30:04.841Z,1.00
2023-03-17T06:30:46.762Z,1.00
2023-03-17T06:31:27.956Z,1.00
2023-03-17T06:32:20.182Z,1.00
2023-03-17T06:33:01.962Z,1.00
2023-03-17T06:33:41.709Z,1.00
2023-03-17T06:34:23.098Z,1.00
2023-03-17T06:34:54.864Z,1.00
2023-03-17T06:35:26.702Z,1.00
2023-03-17T06:35:58.977Z,1.00
2023-03-17T06:36:32.706Z,1.00
2023-03-17T06:37:05.289Z,1.00
2023-03-17T06:37:37.356Z,1.00
2023-03-17T06:38:09.254Z,1.00
2023-03-17T06:38:41.623Z,1.00
2023-03-17T06:40:01.353Z,1.00
2023-03-17T06:40:40.385Z,1.00
2023-03-17T06:41:27.439Z,1.00
2023-03-17T06:42:09.458Z,1.00
2023-03-17T06:42:49.455Z,1.00
2023-03-17T06:43:52.773Z,1.00
2023-03-17T06:45:20.292Z,1.00
2023-03-17T06:46:09.271Z,1.00
2023-03-17T06:46:48.411Z,1.00
2023-03-17T06:47:53.213Z,1.00
2023-03-17T06:49:13.717Z,1.00
2023-03-17T06:49:55.088Z,1.00
2023-03-17T06:51:57.701Z,1.00
2023-03-17T06:52:42.113Z,1.00
2023-03-17T06:53:45.910Z,1.00
2023-03-17T06:54:57.518Z,1.00
2023-03-17T06:55:49.361Z,1.00
2023-03-17T06:56:30.564Z,1.00
2023-03-17T06:57:13.488Z,1.00
2023-03-17T06:57:54.741Z,1.00
2023-03-17T07:00:15.978Z,1.00
2023-03-17T07:02:07.191Z,1.00
2023-03-17T07:02:49.760Z,1.00
2023-03-17T07:03:29.476Z,1.00
2023-03-17T07:04:07.983Z,1.00
2023-03-17T07:05:14.047Z,1.00
2023-03-17T07:06:26.924Z,1.00
2023-03-17T07:07:52.485Z,1.00
2023-03-17T07:08:35.004Z,1.00
2023-03-17T07:09:15.683Z,1.00
2023-03-17T07:10:23.315Z,1.00
2023-03-17T07:11:05.504Z,1.00
2023-03-17T07:11:46.352Z,1.00
2023-03-17T07:12:25.676Z,1.00
2023-03-17T07:13:08.575Z,1.00
2023-03-17T07:16:12.319Z,1.00
2023-03-17T07:16:52.130Z,1.00
2023-03-17T07:17:31.370Z,1.00
2023-03-17T07:18:11.424Z,1.00
2023-03-17T07:19:03.464Z,1.00
2023-03-17T07:19:55.386Z,1.00
2023-03-17T07:20:42.162Z,1.00
2023-03-17T07:21:47.150Z,1.00
2023-03-17T07:23:38.315Z,1.00
2023-03-17T07:24:20.076Z,1.00
2023-03-17T07:24:59.329Z,1.00
2023-03-17T07:25:43.577Z,1.00
2023-03-17T07:27:00.565Z,1.00
2023-03-17T07:28:20.367Z,1.00
2023-03-17T07:29:09.795Z,1.00
2023-03-17T07:30:28.841Z,1.00
2023-03-17T07:31:09.550Z,1.00
2023-03-17T07:31:51.944Z,1.00
2023-03-17T07:32:55.972Z,1.00
2023-03-17T07:33:36.147Z,1.00
2023-03-17T07:34:39.938Z,1.00
2023-03-17T07:36:06.724Z,1.00
2023-03-17T07:36:54.249Z,1.00
2023-03-17T07:38:45.307Z,1.00
2023-03-17T07:39:30.194Z,1.00
2023-03-17T07:40:53.128Z,1.00
2023-03-17T07:42:15.767Z,1.00
2023-03-17T07:42:58.666Z,1.00
2023-03-17T07:43:38.632Z,1.00
2023-03-17T07:44:17.686Z,1.00
2023-03-17T07:45:06.204Z,1.00
2023-03-17T07:45:47.163Z,1.00
2023-03-17T07:46:29.552Z,1.00
2023-03-17T07:47:33.688Z,1.00
2023-03-17T07:49:41.285Z,1.00
2023-03-17T07:50:32.341Z,1.00
2023-03-17T07:52:44.124Z,1.00
2023-03-17T07:53:24.405Z,1.00
2023-03-17T07:54:06.804Z,1.00
2023-03-17T07:54:52.316Z,1.00
2023-03-17T07:58:02.949Z,1.00
2023-03-17T07:58:49.454Z,1.00
2023-03-17T07:59:30.294Z,1.00
2023-03-17T08:00:13.708Z,1.00
2023-03-17T08:01:01.490Z,1.00
2023-03-17T08:02:05.226Z,1.00
2023-03-17T08:03:25.654Z,1.00
2023-03-17T08:04:16.162Z,1.00
2023-03-17T08:06:12.889Z,1.00
2023-03-17T08:08:31.329Z,1.00
2023-03-17T08:09:11.958Z,1.00
2023-03-17T08:09:52.844Z,1.00
2023-03-17T08:15:32.931Z,1.00
2023-03-17T08:16:20.659Z,1.00
2023-03-17T08:18:05.760Z,1.00
2023-03-17T08:18:53.593Z,1.00
2023-03-17T08:19:36.127Z,1.00
2023-03-17T08:20:19.405Z,1.00
2023-03-17T08:21:07.184Z,1.00
2023-03-17T08:21:46.379Z,1.00
2023-03-17T08:22:42.421Z,1.00
2023-03-17T08:24:01.896Z,1.00
2023-03-17T08:25:06.159Z,1.00
2023-03-17T08:26:03.875Z,1.00
2023-03-17T08:26:50.243Z,1.00
2023-03-17T08:28:21.262Z,1.00
2023-03-17T08:29:01.342Z,1.00
2023-03-17T08:30:05.849Z,1.00
2023-03-17T08:34:05.333Z,1.00
2023-03-17T08:36:06.521Z,1.00
2023-03-17T08:37:19.014Z,1.00
2023-03-17T08:38:12.746Z,1.00
2023-03-17T08:39:18.366Z,1.00
2023-03-17T08:39:57.314Z,1.00
2023-03-17T08:41:03.393Z,1.00
2023-03-17T08:43:55.127Z,1.00
2023-03-17T08:44:29.836Z,1.00
2023-03-17T08:45:02.525Z,1.00
2023-03-17T08:45:34.798Z,1.00
2023-03-17T08:46:17.102Z,1.00
2023-03-17T08:46:51.655Z,1.00
2023-03-17T08:47:24.031Z,1.00
2023-03-17T08:49:06.314Z,1.00
2023-03-17T08:51:31.764Z,1.00
2023-03-17T08:52:36.449Z,1.00
2023-03-17T08:57:56.957Z,1.00
2023-03-17T09:00:01.339Z,1.00
2023-03-17T09:00:51.784Z,1.00
2023-03-17T09:01:35.141Z,1.00
2023-03-17T09:02:17.906Z,1.00
2023-03-17T09:03:00.424Z,1.00
2023-03-17T09:03:49.747Z,1.00
2023-03-17T09:10:27.407Z,1.00
2023-03-17T09:11:32.932Z,1.00
2023-03-17T09:12:13.116Z,1.00
2023-03-17T09:14:44.154Z,1.00
2023-03-17T09:15:16.831Z,1.00
2023-03-17T09:15:51.268Z,1.00
2023-03-17T09:16:44.303Z,1.00
2023-03-17T09:17:57.483Z,1.00
2023-03-17T09:19:19.689Z,1.00
2023-03-17T09:23:42.861Z,1.00
2023-03-17T09:24:14.843Z,1.00
2023-03-17T09:26:38.934Z,1.00
2023-03-17T09:27:43.595Z,1.00
2023-03-17T09:34:46.868Z,1.00
2023-03-17T09:36:07.920Z,1.00
2023-03-17T09:36:41.371Z,1.00
2023-03-17T09:40:09.725Z,1.00
2023-03-17T09:41:01.073Z,1.00
2023-03-17T09:43:25.107Z,1.00
2023-03-17T09:44:23.841Z,1.00
2023-03-17T09:45:43.725Z,1.00
2023-03-17T09:46:28.487Z,1.00
2023-03-17T09:47:38.100Z,1.00
2023-03-17T09:49:15.182Z,1.00
2023-03-17T09:51:24.431Z,1.00
2023-03-17T09:53:04.019Z,1.00
2023-03-17T09:54:33.284Z,1.00
2023-03-17T09:55:24.835Z,1.00
2023-03-17T09:56:17.095Z,1.00
2023-03-17T09:57:21.380Z,1.00
2023-03-17T09:59:18.500Z,1.00
2023-03-17T10:01:02.110Z,1.00
2023-03-17T10:01:43.758Z,1.00
2023-03-17T10:02:43.895Z,1.00
2023-03-17T10:03:24.640Z,1.00
2023-03-17T10:04:06.563Z,1.00
2023-03-17T10:04:48.044Z,1.00
2023-03-17T10:05:43.010Z,1.00
2023-03-17T10:06:34.724Z,1.00
2023-03-17T10:07:23.549Z,1.00
2023-03-17T10:08:32.459Z,1.00
2023-03-17T10:09:12.062Z,1.00
2023-03-17T10:11:42.085Z,1.00
2023-03-17T10:13:16.738Z,1.00
2023-03-17T10:14:14.322Z,1.00
2023-03-17T10:14:56.493Z,1.00
2023-03-17T10:15:49.522Z,1.00
2023-03-17T10:17:00.537Z,1.00
2023-03-17T10:20:52.406Z,1.00
2023-03-17T10:21:45.057Z,1.00
2023-03-17T10:23:02.349Z,1.00
2023-03-17T10:23:43.631Z,1.00
2023-03-17T10:24:24.258Z,1.00
2023-03-17T10:25:14.166Z,1.00
2023-03-17T10:26:31.747Z,1.00
2023-03-17T10:27:14.539Z,1.00
2023-03-17T10:28:40.957Z,1.00
2023-03-17T10:29:48.655Z,1.00
2023-03-17T10:35:13.541Z,1.00
2023-03-17T10:36:35.277Z,1.00
2023-03-17T10:43:59.367Z,1.00
2023-03-17T10:44:42.874Z,1.00
2023-03-17T10:45:33.608Z,1.00
2023-03-17T10:46:21.848Z,1.00
2023-03-17T10:47:03.234Z,1.00
2023-03-17T10:47:48.793Z,1.00
2023-03-17T10:48:28.279Z,1.00
2023-03-17T10:49:17.619Z,1.00
2023-03-17T10:49:57.612Z,1.00
2023-03-17T10:50:40.199Z,1.00
2023-03-17T10:51:19.155Z,1.00
2023-03-17T10:51:55.527Z,1.00
2023-03-17T10:53:31.316Z,1.00
2023-03-17T10:54:09.885Z,1.00
2023-03-17T10:55:04.570Z,1.00
2023-03-17T10:55:41.542Z,1.00
2023-03-17T10:56:27.728Z,1.00
2023-03-17T10:57:07.549Z,1.00
2023-03-17T10:57:41.613Z,1.00
2023-03-17T10:58:18.266Z,1.00
2023-03-17T10:58:53.040Z,1.00
2023-03-17T11:00:13.152Z,1.00
2023-03-17T11:01:05.428Z,1.00
2023-03-17T11:01:45.482Z,1.00
2023-03-17T11:02:37.388Z,1.00
2023-03-17T11:03:22.327Z,1.00
2023-03-17T11:03:54.620Z,1.00
2023-03-17T11:04:35.253Z,1.00
2023-03-17T11:05:21.388Z,1.00
2023-03-17T11:06:11.945Z,1.00
2023-03-17T11:06:53.395Z,1.00
2023-03-17T11:07:40.820Z,1.00
2023-03-17T11:12:26.642Z,1.00
2023-03-17T11:14:32.489Z,1.00
2023-03-17T11:16:37.902Z,1.00
2023-03-17T11:18:26.422Z,1.00
2023-03-17T11:20:09.715Z,1.00
2023-03-17T11:21:36.944Z,1.00
2023-03-17T11:22:35.352Z,1.00
2023-03-17T11:26:06.754Z,1.00
2023-03-17T11:27:14.462Z,1.00
2023-03-17T11:28:25.502Z,1.00
2023-03-17T11:29:06.125Z,1.00
2023-03-17T11:30:18.111Z,1.00
2023-03-17T11:31:15.713Z,1.00
2023-03-17T11:32:12.285Z,1.00
2023-03-17T11:33:33.895Z,1.00
2023-03-17T11:34:37.289Z,1.00
2023-03-17T11:39:03.853Z,1.00
2023-03-17T11:40:01.511Z,1.00
2023-03-17T11:40:56.177Z,1.00
2023-03-17T11:43:05.386Z,1.00
2023-03-17T11:44:17.996Z,1.00
2023-03-17T11:45:05.363Z,1.00
2023-03-17T11:46:41.783Z,1.00
2023-03-17T11:47:44.286Z,1.00
2023-03-17T11:48:49.000Z,1.00
2023-03-17T11:51:07.066Z,1.00
2023-03-17T12:33:02.848Z,15.67
2023-03-17T12:33:45.465Z,59.67
2023-03-17T12:34:39.041Z,94.67
2023-03-17T12:35:18.778Z,128.00
2023-03-17T12:36:02.420Z,146.67
2023-03-17T12:36:49.015Z,158.00
2023-03-17T12:37:27.691Z,158.33
2023-03-17T12:38:12.650Z,155.33
2023-03-17T12:39:02.229Z,146.67
2023-03-17T12:40:11.348Z,129.67
2023-03-17T12:41:36.550Z,95.00
2023-03-17T12:42:30.519Z,90.00
2023-03-17T12:43:08.658Z,69.33
2023-03-17T12:44:03.616Z,55.33
2023-03-17T12:45:15.961Z,33.67
2023-03-17T12:46:39.170Z,28.67
2023-03-17T12:48:33.602Z,18.00
2023-03-17T12:49:34.289Z,14.33
2023-03-17T12:51:11.054Z,11.00
2023-03-17T12:52:28.454Z,9.00
2023-03-17T12:53:07.433Z,7.00
2023-03-17T12:54:11.015Z,6.00
2023-03-17T12:55:02.262Z,5.33
2023-03-17T12:56:24.828Z,4.00
2023-03-17T12:57:11.045Z,4.00
2023-03-17T12:58:08.243Z,4.00
2023-03-17T12:58:48.376Z,3.00
2023-03-17T12:59:32.823Z,3.00
2023-03-17T13:00:50.869Z,3.00
2023-03-17T13:01:39.303Z,2.67
2023-03-17T13:03:17.020Z,2.00
2023-03-17T13:04:27.060Z,2.00
2023-03-17T13:05:51.873Z,2.00
2023-03-17T13:07:51.721Z,2.00
2023-03-17T13:09:33.011Z,2.00
2023-03-17T13:10:13.448Z,1.00
2023-03-17T13:11:22.517Z,1.00
2023-03-17T13:13:22.541Z,1.00
2023-03-17T13:14:40.297Z,1.00
2023-03-17T13:15:44.665Z,1.00
2023-03-17T13:17:20.082Z,1.00
2023-03-17T13:18:15.482Z,1.00
2023-03-17T13:19:32.982Z,1.00
2023-03-17T13:20:19.243Z,1.00
2023-03-17T13:21:01.388Z,1.00
2023-03-17T13:22:00.619Z,1.00
2023-03-17T13:23:11.185Z,1.00
2023-03-17T13:24:34.661Z,1.00
2023-03-17T13:25:53.989Z,1.00
2023-03-17T13:27:31.298Z,1.00
2023-03-17T13:28:12.450Z,1.00
2023-03-17T13:28:49.375Z,1.00
2023-03-17T13:30:46.231Z,1.00
2023-03-17T13:31:27.497Z,1.00
2023-03-17T13:32:05.535Z,1.00
2023-03-17T13:32:45.879Z,1.00
2023-03-17T13:33:31.590Z,1.00
2023-03-17T13:34:18.701Z,1.00
2023-03-17T13:36:05.346Z,1.00
2023-03-17T13:37:32.400Z,1.00
2023-03-17T13:38:11.462Z,1.00
2023-03-17T13:39:04.952Z,1.00
2023-03-17T13:40:18.255Z,1.00
2023-03-17T13:40:56.559Z,1.00
2023-03-17T13:41:40.545Z,1.00
2023-03-17T13:42:44.277Z,1.00
2023-03-17T13:44:08.121Z,1.00
2023-03-17T13:45:05.732Z,1.00
2023-03-17T13:45:46.794Z,1.00
2023-03-17T13:46:21.570Z,1.00
2023-03-17T13:46:54.689Z,1.00
2023-03-17T13:48:42.593Z,1.00
2023-03-17T13:49:22.667Z,1.00
2023-03-17T13:50:43.570Z,1.00
2023-03-17T13:52:27.811Z,1.00
2023-03-17T13:53:43.416Z,1.00
2023-03-17T13:55:01.849Z,1.00
2023-03-17T13:56:36.229Z,1.00
2023-03-17T13:57:45.792Z,1.00
2023-03-17T13:58:59.816Z,1.00
2023-03-17T13:59:40.695Z,1.00
2023-03-17T14:01:07.529Z,1.00
2023-03-17T14:02:16.741Z,1.00
2023-03-17T14:04:02.313Z,1.00
2023-03-17T14:06:32.891Z,1.00
2023-03-17T14:08:23.739Z,1.00
2023-03-17T14:09:19.038Z,1.00
2023-03-17T14:10:54.485Z,1.00
2023-03-17T14:11:33.759Z,1.00
2023-03-17T14:12:28.867Z,1.00
2023-03-17T14:13:07.716Z,1.00
2023-03-17T14:14:08.840Z,1.00
2023-03-17T14:14:48.412Z,1.00
2023-03-17T14:15:52.853Z,1.00
2023-03-17T14:16:32.952Z,1.00
2023-03-17T14:17:24.000Z,1.00
2023-03-17T14:19:09.605Z,1.00
2023-03-17T14:20:29.437Z,1.00
2023-03-17T14:21:44.576Z,1.00
2023-03-17T14:23:05.425Z,1.00
2023-03-17T14:23:59.651Z,1.00
2023-03-17T14:25:36.348Z,1.00
2023-03-17T14:26:15.544Z,1.00
2023-03-17T14:26:58.430Z,1.00
2023-03-17T14:28:17.232Z,1.00
2023-03-17T14:29:04.980Z,1.00
2023-03-17T14:29:40.154Z,1.00
2023-03-17T14:30:21.799Z,1.00
2023-03-17T14:31:07.212Z,1.00
2023-03-17T14:31:40.539Z,1.00
2023-03-17T14:32:15.090Z,1.00
2023-03-17T14:33:21.691Z,1.00
2023-03-17T14:34:01.038Z,1.00
2023-03-17T14:34:33.765Z,1.00
2023-03-17T14:35:06.046Z,1.00
2023-03-17T14:35:44.977Z,1.00
2023-03-17T14:36:17.152Z,1.00
2023-03-17T14:36:51.581Z,1.00
2023-03-17T14:37:24.590Z,1.00
2023-03-17T14:37:56.304Z,1.00
2023-03-17T14:38:31.541Z,1.00
2023-03-17T14:39:04.010Z,1.00
2023-03-17T14:39:43.818Z,1.00
2023-03-17T14:40:22.596Z,1.00
2023-03-17T14:41:15.916Z,1.00
2023-03-17T14:42:01.795Z,1.00
2023-03-17T14:42:33.653Z,1.00
2023-03-17T14:43:05.604Z,1.00
2023-03-17T14:43:37.595Z,1.00
2023-03-17T14:44:11.107Z,1.00
2023-03-17T14:44:44.143Z,1.00
2023-03-17T14:45:51.473Z,1.00
2023-03-17T14:46:41.324Z,1.00
2023-03-17T14:47:20.093Z,1.00
2023-03-17T14:47:54.030Z,1.00
2023-03-17T14:48:33.750Z,1.00
2023-03-17T14:49:18.054Z,1.00
2023-03-17T14:49:53.461Z,1.00
2023-03-17T14:51:14.357Z,1.00
2023-03-17T14:51:51.472Z,1.00
2023-03-17T14:52:29.031Z,1.00
2023-03-17T14:53:01.757Z,1.00
2023-03-17T14:53:36.364Z,1.00
2023-03-17T14:54:19.281Z,1.00
2023-03-17T14:54:53.958Z,1.00
2023-03-17T14:55:37.518Z,1.00
2023-03-17T14:56:10.685Z,1.00